createdAt,value
2022-11-16T00:00:11.200Z,8.52
2022-11-16T00:02:39.576Z,10.15
2022-11-16T00:05:08.847Z,11.68
2022-11-16T00:07:37.318Z,9.18
2022-11-16T00:10:07.984Z,8.25
2022-11-16T00:12:37.588Z,7.78
2022-11-16T00:15:07.712Z,7.97
2022-11-16T00:17:35.862Z,7.60
2022-11-16T00:20:04.676Z,7.35
2022-11-16T00:22:32.858Z,7.00
2022-11-16T00:25:01.055Z,8.80
2022-11-16T00:27:29.442Z,8.82
2022-11-16T00:29:59.267Z,8.25
2022-11-16T00:32:27.513Z,9.70
2022-11-16T00:34:55.862Z,8.88
2022-11-16T00:37:24.363Z,11.85
2022-11-16T00:39:52.828Z,8.52
2022-11-16T00:42:21.022Z,11.30
2022-11-16T00:44:49.260Z,10.75
2022-11-16T00:47:19.877Z,9.48
2022-11-16T00:49:48.102Z,8.88
2022-11-16T00:52:16.303Z,8.27
2022-11-16T00:54:45.222Z,13.95
2022-11-16T00:57:13.823Z,9.43
2022-11-16T00:59:42.853Z,11.27
2022-11-16T01:02:11.037Z,8.73
2022-11-16T01:04:43.654Z,9.27
2022-11-16T01:07:11.847Z,11.48
2022-11-16T01:09:40.656Z,10.38
2022-11-16T01:12:11.041Z,9.38
2022-11-16T01:14:40.737Z,11.52
2022-11-16T01:17:09.844Z,9.65
2022-11-16T01:19:41.473Z,12.70
2022-11-16T01:22:14.212Z,10.35
2022-11-16T01:24:43.477Z,11.30
2022-11-16T01:27:12.757Z,9.30
2022-11-16T01:29:51.974Z,10.05
2022-11-16T01:32:24.324Z,9.32
2022-11-16T01:34:52.576Z,10.15
2022-11-16T01:37:30.727Z,14.90
2022-11-16T01:40:00.253Z,9.65
2022-11-16T01:42:33.527Z,9.88
2022-11-16T01:45:17.324Z,11.20
2022-11-16T01:47:46.063Z,9.13
2022-11-16T01:50:20.267Z,10.77
2022-11-16T01:52:56.800Z,13.25
2022-11-16T01:55:31.214Z,6.43
2022-11-16T01:58:14.074Z,5.03
2022-11-16T02:00:42.435Z,4.95
2022-11-16T02:03:28.985Z,4.82
2022-11-16T02:06:16.915Z,5.72
2022-11-16T02:09:35.283Z,4.57
2022-11-16T02:12:35.484Z,4.25
2022-11-16T02:15:21.561Z,4.70
2022-11-16T02:18:15.290Z,7.15
2022-11-16T02:21:03.264Z,5.20
2022-11-16T02:24:23.278Z,5.55
2022-11-16T02:27:39.531Z,5.13
2022-11-16T02:30:09.553Z,4.10
2022-11-16T02:32:50.938Z,3.42
2022-11-16T02:35:24.820Z,3.20
2022-11-16T02:38:01.302Z,3.78
2022-11-16T02:40:34.347Z,2.88
2022-11-16T02:43:09.155Z,4.18
2022-11-16T02:45:43.894Z,3.00
2022-11-16T02:48:21.675Z,3.80
2022-11-16T02:50:52.684Z,4.45
2022-11-16T02:53:22.585Z,4.18
2022-11-16T02:55:50.970Z,3.80
2022-11-16T02:58:23.961Z,3.88
2022-11-16T03:01:02.158Z,3.80
2022-11-16T03:03:39.846Z,3.60
2022-11-16T03:06:14.094Z,3.67
2022-11-16T03:08:47.255Z,3.95
2022-11-16T03:11:33.576Z,4.28
2022-11-16T03:14:10.007Z,2.95
2022-11-16T03:16:44.895Z,2.10
2022-11-16T03:19:20.879Z,1.70
2022-11-16T03:21:57.233Z,1.20
2022-11-16T03:24:26.190Z,1.45
2022-11-16T03:27:02.976Z,1.65
2022-11-16T03:29:36.662Z,1.92
2022-11-16T03:32:20.150Z,1.25
2022-11-16T03:34:58.588Z,1.58
2022-11-16T03:37:29.951Z,1.58
2022-11-16T03:40:02.131Z,1.00
2022-11-16T03:42:34.369Z,1.15
2022-11-16T03:45:04.153Z,1.23
2022-11-16T03:47:33.886Z,0.90
2022-11-16T03:50:02.227Z,1.08
2022-11-16T03:52:31.198Z,1.10
2022-11-16T03:55:00.031Z,0.70
2022-11-16T03:57:28.605Z,1.00
2022-11-16T03:59:59.948Z,0.98
2022-11-16T04:02:28.239Z,0.95
2022-11-16T04:05:18.321Z,0.90
2022-11-16T04:08:04.400Z,1.33
2022-11-16T04:10:51.208Z,1.40
2022-11-16T04:13:45.092Z,1.48
2022-11-16T04:16:30.810Z,1.60
2022-11-16T04:19:18.159Z,1.88
2022-11-16T04:22:10.384Z,1.63
2022-11-16T04:24:42.895Z,1.90
2022-11-16T04:27:32.149Z,1.70
2022-11-16T04:30:04.057Z,2.28
2022-11-16T04:32:53.002Z,1.95
2022-11-16T04:35:38.827Z,2.15
2022-11-16T04:38:11.811Z,2.70
2022-11-16T04:40:39.987Z,2.80
2022-11-16T04:43:10.360Z,2.55
2022-11-16T04:45:59.293Z,2.78
2022-11-16T04:48:35.353Z,2.97
2022-11-16T04:51:05.365Z,2.30
2022-11-16T04:53:36.393Z,2.20
2022-11-16T04:56:22.251Z,2.38
2022-11-16T04:58:50.787Z,2.47
2022-11-16T05:01:40.492Z,2.53
2022-11-16T05:04:08.833Z,2.42
2022-11-16T05:06:37.167Z,2.83
2022-11-16T05:09:07.010Z,2.70
2022-11-16T05:11:35.319Z,2.80
2022-11-16T05:14:05.772Z,3.28
2022-11-16T05:16:34.335Z,3.85
2022-11-16T05:19:20.401Z,3.33
2022-11-16T05:21:49.353Z,4.00
2022-11-16T05:24:38.124Z,4.40
2022-11-16T05:27:11.248Z,4.18
2022-11-16T05:29:40.860Z,3.53
2022-11-16T05:32:12.041Z,4.03
2022-11-16T05:34:41.430Z,4.63
2022-11-16T05:37:11.924Z,3.92
2022-11-16T05:39:41.989Z,3.25
2022-11-16T05:42:11.377Z,3.45
2022-11-16T05:44:39.698Z,3.03
2022-11-16T05:47:11.239Z,2.67
2022-11-16T05:49:39.508Z,2.53
2022-11-16T05:52:07.648Z,2.88
2022-11-16T05:54:37.046Z,2.38
2022-11-16T05:57:07.689Z,2.95
2022-11-16T05:59:36.473Z,2.60
2022-11-16T06:02:06.036Z,3.03
2022-11-16T06:04:35.877Z,2.85
2022-11-16T06:07:04.777Z,3.13
2022-11-16T06:09:36.658Z,3.13
2022-11-16T06:12:16.395Z,3.55
2022-11-16T06:14:45.682Z,3.72
2022-11-16T06:17:14.591Z,4.03
2022-11-16T06:19:43.484Z,3.88
2022-11-16T06:22:12.026Z,4.03
2022-11-16T06:24:40.300Z,4.90
2022-11-16T06:27:08.716Z,3.85
2022-11-16T06:29:38.764Z,3.65
2022-11-16T06:32:06.988Z,3.95
2022-11-16T06:34:36.398Z,3.97
2022-11-16T06:37:05.558Z,3.88
2022-11-16T06:39:34.052Z,3.13
2022-11-16T06:42:02.848Z,2.60
2022-11-16T06:44:31.087Z,3.20
2022-11-16T06:47:04.808Z,3.20
2022-11-16T06:49:35.433Z,2.58
2022-11-16T06:52:09.322Z,2.95
2022-11-16T06:54:37.668Z,2.72
2022-11-16T06:57:06.245Z,2.88
2022-11-16T06:59:34.998Z,2.40
2022-11-16T07:02:04.871Z,2.78
2022-11-16T07:04:35.168Z,2.75
2022-11-16T07:07:04.779Z,2.25
2022-11-16T07:09:35.318Z,2.58
2022-11-16T07:12:04.092Z,3.10
2022-11-16T07:14:38.464Z,3.00
2022-11-16T07:17:10.791Z,2.30
2022-11-16T07:19:40.081Z,2.97
2022-11-16T07:22:09.602Z,2.75
2022-11-16T07:24:38.264Z,3.17
2022-11-16T07:27:09.184Z,2.65
2022-11-16T07:29:41.176Z,2.47
2022-11-16T07:32:30.769Z,3.00
2022-11-16T07:35:12.862Z,3.38
2022-11-16T07:37:41.948Z,3.05
2022-11-16T07:40:11.323Z,3.95
2022-11-16T07:42:42.045Z,3.13
2022-11-16T07:45:34.771Z,3.55
2022-11-16T07:48:09.592Z,3.45
2022-11-16T07:51:05.330Z,3.00
2022-11-16T07:53:36.130Z,3.38
2022-11-16T07:56:05.231Z,2.60
2022-11-16T07:58:36.691Z,2.67
2022-11-16T08:01:06.983Z,3.58
2022-11-16T08:03:38.268Z,4.43
2022-11-16T08:06:12.204Z,2.92
2022-11-16T08:08:40.769Z,2.97
2022-11-16T08:11:11.774Z,2.70
2022-11-16T08:13:41.976Z,2.45
2022-11-16T08:16:14.698Z,2.92
2022-11-16T08:18:45.680Z,2.00
2022-11-16T08:21:16.989Z,1.83
2022-11-16T08:23:46.206Z,2.60
2022-11-16T08:26:17.799Z,2.55
2022-11-16T08:28:53.744Z,2.15
2022-11-16T08:31:29.201Z,2.22
2022-11-16T08:34:09.989Z,2.30
2022-11-16T08:36:41.571Z,1.98
2022-11-16T08:39:10.447Z,2.95
2022-11-16T08:41:42.036Z,2.13
2022-11-16T08:44:12.338Z,2.00
2022-11-16T08:46:44.624Z,2.28
2022-11-16T08:49:28.858Z,2.17
2022-11-16T08:51:57.633Z,2.00
2022-11-16T08:54:27.983Z,1.70
2022-11-16T08:56:56.169Z,2.03
2022-11-16T08:59:24.566Z,1.77
2022-11-16T09:01:56.705Z,2.03
2022-11-16T09:04:25.066Z,2.67
2022-11-16T09:06:54.924Z,1.95
2022-11-16T09:09:23.142Z,1.80
2022-11-16T09:11:53.506Z,1.88
2022-11-16T09:14:21.876Z,2.33
2022-11-16T09:16:51.249Z,1.83
2022-11-16T09:19:20.503Z,1.83
2022-11-16T09:21:48.643Z,2.03
2022-11-16T09:24:18.403Z,2.00
2022-11-16T09:26:46.633Z,2.05
2022-11-16T09:29:16.578Z,1.75
2022-11-16T09:31:46.192Z,2.50
2022-11-16T09:34:14.460Z,1.90
2022-11-16T09:36:43.724Z,2.10
2022-11-16T09:39:29.976Z,2.38
2022-11-16T09:42:19.737Z,2.08
2022-11-16T09:45:04.918Z,1.83
2022-11-16T09:47:49.999Z,2.05
2022-11-16T09:50:37.011Z,1.88
2022-11-16T09:53:31.401Z,1.73
2022-11-16T09:56:05.167Z,1.88
2022-11-16T09:58:44.675Z,2.33
2022-11-16T10:01:25.067Z,2.22
2022-11-16T10:04:01.601Z,1.63
2022-11-16T10:06:41.411Z,1.50
2022-11-16T10:09:13.042Z,2.00
2022-11-16T10:12:01.864Z,2.47
2022-11-16T10:15:12.792Z,1.88
2022-11-16T10:17:59.418Z,2.38
2022-11-16T10:20:58.383Z,2.22
2022-11-16T10:23:42.917Z,1.80
2022-11-16T10:26:27.115Z,1.63
2022-11-16T10:29:15.250Z,1.70
2022-11-16T10:32:04.478Z,2.40
2022-11-16T10:34:49.196Z,1.85
2022-11-16T10:37:17.617Z,1.63
2022-11-16T10:39:49.372Z,1.40
2022-11-16T10:42:24.016Z,1.70
2022-11-16T10:44:59.652Z,1.40
2022-11-16T10:47:41.749Z,2.10
2022-11-16T10:50:32.372Z,2.13
2022-11-16T10:53:01.530Z,1.85
2022-11-16T10:55:30.500Z,1.90
2022-11-16T10:58:01.749Z,2.60
2022-11-16T11:00:40.270Z,2.30
2022-11-16T11:03:11.864Z,2.05
2022-11-16T11:05:54.477Z,1.85
2022-11-16T11:08:30.400Z,1.67
2022-11-16T11:11:22.541Z,1.65
2022-11-16T11:14:05.855Z,2.10
2022-11-16T11:16:34.172Z,2.03
2022-11-16T11:19:30.852Z,1.83
2022-11-16T11:22:00.358Z,1.30
2022-11-16T11:24:44.074Z,2.92
2022-11-16T11:27:13.355Z,2.08
2022-11-16T11:29:43.835Z,1.70
2022-11-16T11:32:23.587Z,1.50
2022-11-16T11:34:57.054Z,1.92
2022-11-16T11:37:30.455Z,2.10
2022-11-16T11:40:20.088Z,1.70
2022-11-16T11:42:58.639Z,1.80
2022-11-16T11:45:43.561Z,1.50
2022-11-16T11:48:34.293Z,1.55
2022-11-16T11:51:13.190Z,1.52
2022-11-16T11:53:51.523Z,2.08
2022-11-16T11:56:20.466Z,2.28
2022-11-16T11:58:51.608Z,2.03
2022-11-16T12:01:49.195Z,2.13
2022-11-16T12:05:16.233Z,1.58
2022-11-16T12:08:07.097Z,1.77
2022-11-16T12:10:48.128Z,1.65
2022-11-16T12:13:48.710Z,1.40
2022-11-16T12:16:30.232Z,1.63
2022-11-16T12:19:25.790Z,1.30
2022-11-16T12:22:10.083Z,1.40
2022-11-16T12:25:08.619Z,1.70
2022-11-16T12:27:48.146Z,1.85
2022-11-16T12:30:20.215Z,1.60
2022-11-16T12:33:11.518Z,1.98
2022-11-16T12:35:53.072Z,1.38
2022-11-16T12:38:41.575Z,2.10
2022-11-16T12:41:34.810Z,1.73
2022-11-16T12:44:09.193Z,1.50
2022-11-16T12:46:51.905Z,1.50
2022-11-16T12:50:00.148Z,1.55
2022-11-16T12:52:58.140Z,1.10
2022-11-16T12:55:39.323Z,1.77
2022-11-16T12:58:21.633Z,1.33
2022-11-16T13:01:03.690Z,1.60
2022-11-16T13:03:42.735Z,1.55
2022-11-16T13:06:18.203Z,1.88
2022-11-16T13:08:58.392Z,1.80
2022-11-16T13:11:32.303Z,1.25
2022-11-16T13:14:09.336Z,1.10
2022-11-16T13:16:37.763Z,1.50
2022-11-16T13:19:17.482Z,1.60
2022-11-16T13:21:56.687Z,2.10
2022-11-16T13:24:47.779Z,1.55
2022-11-16T13:27:35.858Z,1.70
2022-11-16T13:30:18.309Z,1.48
2022-11-16T13:33:14.526Z,1.42
2022-11-16T13:35:43.858Z,1.00
2022-11-16T13:38:14.897Z,1.30
2022-11-16T13:40:43.977Z,1.63
2022-11-16T13:43:21.187Z,1.08
2022-11-16T13:45:59.883Z,1.23
2022-11-16T13:48:35.933Z,1.10
2022-11-16T13:51:07.730Z,1.55
2022-11-16T13:56:29.502Z,0.95
2022-11-16T13:58:59.513Z,0.98
2022-11-16T14:01:59.864Z,1.50
2022-11-16T14:04:43.946Z,1.38
2022-11-16T14:07:35.762Z,1.08
2022-11-16T14:10:07.919Z,1.20
2022-11-16T14:13:00.692Z,1.10
2022-11-16T14:15:38.647Z,0.73
2022-11-16T14:18:37.287Z,1.00
2022-11-16T14:21:26.613Z,0.98
2022-11-16T14:24:14.552Z,1.00
2022-11-16T14:26:54.262Z,1.20
2022-11-16T14:29:50.523Z,0.90
2022-11-16T14:32:23.510Z,0.90
2022-11-16T14:34:56.349Z,1.75
2022-11-16T14:37:35.879Z,1.30
2022-11-16T14:40:11.307Z,1.38
2022-11-16T14:43:14.845Z,1.35
2022-11-16T14:45:40.191Z,1.38
2022-11-16T14:48:17.304Z,1.30
2022-11-16T14:51:03.728Z,1.08
2022-11-16T14:53:33.228Z,1.30
2022-11-16T14:56:11.627Z,1.25
2022-11-16T14:58:40.454Z,1.30
2022-11-16T15:01:15.742Z,1.23
2022-11-16T15:03:54.851Z,1.30
2022-11-16T15:06:27.765Z,1.00
2022-11-16T15:09:01.596Z,1.38
2022-11-16T15:11:46.947Z,1.40
2022-11-16T15:14:21.951Z,1.05
2022-11-16T15:16:52.820Z,1.30
2022-11-16T15:19:22.022Z,1.70
2022-11-16T15:21:57.719Z,1.30
2022-11-16T15:24:30.919Z,1.52
2022-11-16T15:27:12.459Z,1.10
2022-11-16T15:29:40.696Z,1.48
2022-11-16T15:32:17.309Z,0.93
2022-11-16T15:34:59.934Z,1.42
2022-11-16T15:37:32.225Z,0.93
2022-11-16T15:40:03.195Z,1.15
2022-11-16T15:42:31.597Z,2.17
2022-11-16T15:45:16.364Z,2.60
2022-11-16T15:47:46.974Z,2.45
2022-11-16T15:50:19.336Z,2.45
2022-11-16T15:52:55.173Z,2.00
2022-11-16T15:55:35.143Z,1.90
2022-11-16T15:58:14.556Z,2.13
2022-11-16T16:00:43.709Z,3.13
2022-11-16T16:03:22.811Z,3.25
2022-11-16T16:05:52.071Z,3.05
2022-11-16T16:08:34.450Z,3.30
2022-11-16T16:11:06.883Z,3.50
2022-11-16T16:13:37.869Z,3.03
2022-11-16T16:16:27.239Z,2.65
2022-11-16T16:19:03.810Z,1.95
2022-11-16T16:21:45.694Z,2.22
2022-11-16T16:24:38.387Z,1.77
2022-11-16T16:27:18.582Z,1.38
2022-11-16T16:29:47.899Z,1.55
2022-11-16T16:32:25.106Z,1.73
2022-11-16T16:34:54.331Z,2.50
2022-11-16T16:37:23.377Z,2.10
2022-11-16T16:39:52.918Z,2.00
2022-11-16T16:42:21.262Z,1.48
2022-11-16T16:44:50.516Z,1.70
2022-11-16T16:47:21.093Z,1.73
2022-11-16T16:49:49.835Z,1.95
2022-11-16T16:52:18.871Z,2.40
2022-11-16T16:54:47.116Z,2.22
2022-11-16T16:57:18.476Z,4.07
2022-11-16T16:59:48.446Z,6.63
2022-11-16T17:02:18.049Z,3.63
2022-11-16T17:04:48.318Z,5.47
2022-11-16T17:07:16.924Z,3.13
2022-11-16T17:09:45.269Z,3.10
2022-11-16T17:12:13.728Z,2.60
2022-11-16T17:14:43.851Z,1.80
2022-11-16T17:17:12.149Z,2.00
2022-11-16T17:19:40.409Z,1.98
2022-11-16T17:22:08.568Z,2.35
2022-11-16T17:24:38.517Z,2.42
2022-11-16T17:27:06.888Z,1.33
2022-11-16T17:29:35.093Z,1.65
2022-11-16T17:32:06.089Z,1.83
2022-11-16T17:34:34.375Z,2.00
2022-11-16T17:37:05.338Z,2.70
2022-11-16T17:39:35.519Z,2.20
2022-11-16T17:42:03.852Z,2.67
2022-11-16T17:44:32.032Z,2.10
2022-11-16T17:47:00.184Z,1.90
2022-11-16T17:49:29.680Z,1.58
2022-11-16T17:51:57.804Z,1.88
2022-11-16T17:54:26.890Z,1.70
2022-11-16T17:56:56.400Z,2.67
2022-11-16T17:59:29.250Z,1.75
2022-11-16T18:01:58.663Z,1.70
2022-11-16T18:04:27.113Z,1.60
2022-11-16T18:06:59.758Z,2.03
2022-11-16T18:11:58.396Z,3.35
2022-11-16T18:14:27.728Z,4.03
2022-11-16T18:16:55.853Z,3.30
2022-11-16T18:19:24.509Z,2.63
2022-11-16T18:21:53.057Z,2.67
2022-11-16T18:24:22.650Z,2.63
2022-11-16T18:26:50.727Z,2.45
2022-11-16T18:29:19.245Z,1.80
2022-11-16T18:31:47.468Z,1.95
2022-11-16T18:34:16.696Z,2.33
2022-11-16T18:36:46.563Z,1.50
2022-11-16T18:39:14.819Z,1.70
2022-11-16T18:41:51.690Z,2.92
2022-11-16T18:44:24.969Z,2.97
2022-11-16T18:46:54.673Z,2.90
2022-11-16T18:49:23.541Z,2.00
2022-11-16T18:51:51.891Z,2.58
2022-11-16T18:54:20.253Z,1.65
2022-11-16T18:56:49.992Z,2.03
2022-11-16T18:59:18.599Z,1.58
2022-11-16T19:01:47.042Z,1.83
2022-11-16T19:04:15.475Z,1.75
2022-11-16T19:06:43.951Z,1.63
2022-11-16T19:09:12.111Z,2.15
2022-11-16T19:11:43.317Z,1.55
2022-11-16T19:14:13.342Z,2.15
2022-11-16T19:16:49.979Z,2.08
2022-11-16T19:19:21.696Z,1.90
2022-11-16T19:21:51.840Z,1.95
2022-11-16T19:24:24.911Z,1.50
2022-11-16T19:26:55.102Z,2.15
2022-11-16T19:29:24.988Z,3.88
2022-11-16T19:31:53.186Z,2.92
2022-11-16T19:34:21.433Z,3.58
2022-11-16T19:36:49.924Z,3.30
2022-11-16T19:39:18.174Z,3.38
2022-11-16T19:41:47.120Z,2.58
2022-11-16T19:44:15.298Z,1.70
2022-11-16T19:46:45.058Z,1.63
2022-11-16T19:49:19.989Z,1.90
2022-11-16T19:51:49.227Z,2.40
2022-11-16T19:54:17.562Z,2.25
2022-11-16T19:56:48.272Z,2.63
2022-11-16T19:59:20.314Z,1.88
2022-11-16T20:01:49.890Z,2.08
2022-11-16T20:04:18.169Z,1.60
2022-11-16T20:06:46.496Z,1.98
2022-11-16T20:09:14.756Z,2.03
2022-11-16T20:11:43.399Z,2.25
2022-11-16T20:14:14.794Z,1.80
2022-11-16T20:16:49.660Z,1.50
2022-11-16T20:19:20.445Z,1.88
2022-11-16T20:21:48.739Z,1.70
2022-11-16T20:24:18.776Z,1.85
2022-11-16T20:26:49.642Z,2.92
2022-11-16T20:29:20.185Z,2.42
2022-11-16T20:31:48.504Z,5.20
2022-11-16T20:34:20.845Z,2.67
2022-11-16T20:36:51.741Z,2.78
2022-11-16T20:39:22.797Z,3.35
2022-11-16T20:41:52.409Z,3.13
2022-11-16T20:44:28.342Z,2.35
2022-11-16T20:46:59.241Z,3.92
2022-11-16T20:49:34.860Z,2.58
2022-11-16T20:52:04.622Z,2.40
2022-11-16T20:54:34.706Z,1.98
2022-11-16T20:57:05.096Z,2.60
2022-11-16T20:59:34.874Z,2.88
2022-11-16T21:02:05.436Z,2.83
2022-11-16T21:04:35.703Z,3.30
2022-11-16T21:07:03.993Z,3.10
2022-11-16T21:09:52.242Z,2.88
2022-11-16T21:12:42.611Z,3.65
2022-11-16T21:15:11.851Z,3.55
2022-11-16T21:17:40.652Z,3.67
2022-11-16T21:20:26.797Z,3.28
2022-11-16T21:22:55.625Z,2.90
2022-11-16T21:25:23.784Z,3.45
2022-11-16T21:27:51.953Z,4.05
2022-11-16T21:30:20.378Z,3.58
2022-11-16T21:32:49.540Z,3.30
2022-11-16T21:35:20.850Z,3.28
2022-11-16T21:37:49.133Z,3.78
2022-11-16T21:40:17.812Z,3.17
2022-11-16T21:42:47.496Z,3.53
2022-11-16T21:45:15.833Z,4.95
2022-11-16T21:47:44.029Z,3.00
2022-11-16T21:53:01.914Z,2.60
2022-11-16T21:55:30.469Z,2.80
2022-11-16T21:57:59.044Z,2.53
2022-11-16T22:00:28.433Z,2.75
2022-11-16T22:02:56.848Z,2.60
2022-11-16T22:05:42.698Z,3.67
2022-11-16T22:08:12.647Z,2.10
2022-11-16T22:10:41.028Z,2.80
2022-11-16T22:13:09.313Z,3.00
2022-11-16T22:15:37.464Z,2.33
2022-11-16T22:18:06.395Z,2.10
2022-11-16T22:20:34.652Z,2.28
2022-11-16T22:23:02.920Z,2.22
2022-11-16T22:25:38.735Z,1.90
2022-11-16T22:28:24.195Z,2.05
2022-11-16T22:31:02.440Z,2.20
2022-11-16T22:33:31.179Z,2.15
2022-11-16T22:36:00.059Z,2.05
2022-11-16T22:38:28.774Z,1.75
2022-11-16T22:40:58.967Z,1.58
2022-11-16T22:43:29.984Z,1.20
2022-11-16T22:46:00.759Z,1.77
2022-11-16T22:48:33.799Z,1.02
2022-11-16T22:51:07.674Z,1.55
2022-11-16T22:53:36.852Z,1.15
2022-11-16T22:56:10.330Z,1.48
2022-11-16T22:58:39.886Z,1.60
2022-11-16T23:01:09.887Z,1.60
2022-11-16T23:03:39.756Z,1.52
2022-11-16T23:06:09.677Z,1.35
2022-11-16T23:08:40.307Z,2.10
2022-11-16T23:11:30.587Z,1.60
2022-11-16T23:14:17.203Z,1.85
2022-11-16T23:16:46.294Z,1.65
2022-11-16T23:19:34.621Z,1.33
2022-11-16T23:22:21.046Z,1.60
2022-11-16T23:25:06.813Z,1.45
2022-11-16T23:27:42.533Z,1.88
2022-11-16T23:30:13.465Z,1.50
2022-11-16T23:32:42.512Z,1.42
2022-11-16T23:35:11.936Z,1.30
2022-11-16T23:37:55.534Z,1.30
2022-11-16T23:40:26.879Z,1.30
2022-11-16T23:43:14.562Z,1.38
2022-11-16T23:45:44.474Z,1.05
2022-11-16T23:48:15.576Z,1.15
2022-11-16T23:50:45.234Z,1.00
2022-11-16T23:53:13.690Z,0.80
2022-11-16T23:55:43.104Z,0.70
2022-11-16T23:58:15.874Z,0.68
